D Hanis, Texas
Current Conditions -  °F | °C
As of 5:51 PM on Sunday 21 Dec 2014 (Local Time) from KHDO Reporting Station
Overcast Overcast  
Wind Chill: 54°   Ceiling: 1500
Heat Index: 54°   Visibility: 10mi
Dew Point: 48°   Wind: 5mph
Humidity: 80%   Direction: 220°SW
Pressure: 29.93"   Gusts: NA
Location:  29.3507°N, 99.3117°W
Report Text: KHDO 212351Z AUTO 22004KT 10SM OVC015 12/09 A2993 RMK AO2 SLP128 T01220089 10128 20117 56013
Loading
Personal Weather Stations






























Interactive Weather Map New forecast layout! Learn more

10-Day Weather Forecast

Advertisements
Track Severe Weather on mobile